KEEO

Details ICAO KEEO
Name MEEKER
Region United States
Timezone America/Denver (UTC-6.0)
Plans Departing 2
Arriving 3
Stats Elevation 6,421 ft / 1,957 m (AMSL)
Location 40.048802° -107.885918°
Runways 1
Magnetic Variation 9.615° E
Sunrise 2018-05-25 11:49:45 UTC / 2018-05-25 05:49:45 Local
Sunset 2018-05-26 02:30:09 UTC / 2018-05-25 20:30:09 Local
Advertisement - Login to hide

Runways

ID Width Length Bearing (true) Bearing (mag) Surface Threshold Offset Overrun Length
03 60 ft / 18 m 6,500 ft / 1,981 m 39.43° 29.81° Asphalt 0 ft / 0 m 0 ft / 0 m
21 60 ft / 18 m 6,500 ft / 1,981 m 219.44° 209.82° Asphalt 500 ft / 152 m 0 ft / 0 m

Map

Weather


0- 5 10 15 20 25 30 35+ Temperature / ° C

Clouds and Precipitation
Forecast for 2018-05-26 06:00 UTC. Updated 2 hours ago

Ground ~20,000 ft ~40,000 ft Winds

METAR

KEEO 260553Z AUTO 06005KT 10SM CLR 09/M03 A3007 RMK AO2 SLP100 T00941033 10289 20094 50009

TAF

Not found

Frequencies

Recorded 135.52 MHz ASOS
Unicom 122.80 MHz CTAF/UNICOM
Warning: Do not use this data for real-world aviation or navigation. No guarantee of current accuracy is given.